createdAt,value
2022-10-05T00:01:03.885Z,2.50
2022-10-05T00:03:47.959Z,2.90
2022-10-05T00:06:32.053Z,2.20
2022-10-05T00:09:20.898Z,15.47
2022-10-05T00:12:14.380Z,21.57
2022-10-05T00:15:01.977Z,16.70
2022-10-05T00:17:49.044Z,11.13
2022-10-05T00:20:32.970Z,11.47
2022-10-05T00:23:20.608Z,10.03
2022-10-05T00:26:13.229Z,11.10
2022-10-05T00:28:57.351Z,8.97
2022-10-05T00:31:41.413Z,14.30
2022-10-05T00:34:26.993Z,11.60
2022-10-05T00:37:11.141Z,9.23
2022-10-05T00:39:55.690Z,5.53
2022-10-05T00:42:52.107Z,4.13
2022-10-05T00:45:43.662Z,4.07
2022-10-05T00:48:33.844Z,4.10
2022-10-05T00:51:37.495Z,3.27
2022-10-05T00:54:30.762Z,3.43
2022-10-05T00:57:31.799Z,2.80
2022-10-05T01:00:18.759Z,2.93
2022-10-05T01:03:11.213Z,2.37
2022-10-05T01:06:06.362Z,1.90
2022-10-05T01:08:59.383Z,2.53
2022-10-05T01:11:50.903Z,2.83
2022-10-05T01:14:44.862Z,2.50
2022-10-05T01:17:38.367Z,2.67
2022-10-05T01:20:35.687Z,2.03
2022-10-05T01:23:55.664Z,4.07
2022-10-05T01:27:11.893Z,2.60
2022-10-05T01:30:07.725Z,4.37
2022-10-05T01:33:00.489Z,3.53
2022-10-05T01:35:54.268Z,2.33
2022-10-05T01:38:47.996Z,2.10
2022-10-05T01:41:39.880Z,3.40
2022-10-05T01:44:30.107Z,5.80
2022-10-05T01:47:23.161Z,6.93
2022-10-05T01:50:14.253Z,8.97
2022-10-05T01:53:06.791Z,3.80
2022-10-05T01:55:56.192Z,3.43
2022-10-05T01:58:50.030Z,2.07
2022-10-05T02:01:40.399Z,7.20
2022-10-05T02:05:00.541Z,2.70
2022-10-05T02:07:41.532Z,3.00
2022-10-05T02:10:30.054Z,6.43
2022-10-05T02:13:18.516Z,11.47
2022-10-05T02:16:06.387Z,13.27
2022-10-05T02:18:53.875Z,13.33
2022-10-05T02:21:39.792Z,4.67
2022-10-05T02:24:28.403Z,3.27
2022-10-05T02:27:15.448Z,4.63
2022-10-05T02:30:04.184Z,3.73
2022-10-05T02:32:57.638Z,3.10
2022-10-05T02:35:41.428Z,3.63
2022-10-05T02:38:36.904Z,4.20
2022-10-05T02:41:33.782Z,3.00
2022-10-05T02:44:29.280Z,3.73
2022-10-05T02:47:20.724Z,3.57
2022-10-05T02:50:16.189Z,3.20
2022-10-05T02:53:14.744Z,3.77
2022-10-05T02:56:13.232Z,2.70
2022-10-05T02:59:06.375Z,2.70
2022-10-05T03:01:53.728Z,2.80
2022-10-05T03:04:42.700Z,3.20
2022-10-05T03:07:33.703Z,8.30
2022-10-05T03:10:29.613Z,11.80
2022-10-05T03:13:27.331Z,15.53
2022-10-05T03:16:22.008Z,22.37
2022-10-05T03:19:20.984Z,18.20
2022-10-05T03:22:13.036Z,14.63
2022-10-05T03:25:19.450Z,15.77
2022-10-05T03:28:11.457Z,15.43
2022-10-05T03:31:03.723Z,17.13
2022-10-05T03:33:57.157Z,16.27
2022-10-05T03:36:48.437Z,13.47
2022-10-05T03:39:38.142Z,7.70
2022-10-05T03:42:30.894Z,7.50
2022-10-05T03:45:28.443Z,5.30
2022-10-05T03:48:16.801Z,3.50
2022-10-05T03:51:09.224Z,3.67
2022-10-05T03:53:59.576Z,5.33
2022-10-05T03:56:49.576Z,4.57
2022-10-05T03:59:40.405Z,4.67
2022-10-05T04:02:28.281Z,5.80
2022-10-05T04:05:19.218Z,3.67
2022-10-05T04:08:08.115Z,4.23
2022-10-05T04:10:55.467Z,3.70
2022-10-05T04:13:45.501Z,4.10
2022-10-05T04:16:32.899Z,3.77
2022-10-05T04:19:24.540Z,5.77
2022-10-05T04:22:17.152Z,4.13
2022-10-05T04:25:06.864Z,4.13
2022-10-05T04:27:56.057Z,5.20
2022-10-05T04:30:45.399Z,7.97
2022-10-05T04:33:29.279Z,11.03
2022-10-05T04:36:23.727Z,6.80
2022-10-05T04:39:20.103Z,9.93
2022-10-05T04:42:12.360Z,8.43
2022-10-05T04:45:09.658Z,14.10
2022-10-05T04:48:31.079Z,8.93
2022-10-05T04:51:28.034Z,12.03
2022-10-05T04:54:25.696Z,6.50
2022-10-05T04:57:15.063Z,8.70
2022-10-05T05:00:11.242Z,10.77
2022-10-05T05:03:28.494Z,11.30
2022-10-05T05:06:30.232Z,8.60
2022-10-05T05:09:56.924Z,13.87
2022-10-05T05:12:51.833Z,5.43
2022-10-05T05:15:47.192Z,5.93
2022-10-05T05:18:50.323Z,5.07
2022-10-05T05:21:43.591Z,5.00
2022-10-05T05:24:39.643Z,5.60
2022-10-05T05:27:40.535Z,5.37
2022-10-05T05:30:31.566Z,4.87
2022-10-05T05:33:24.369Z,6.23
2022-10-05T05:36:35.827Z,6.47
2022-10-05T05:39:27.463Z,4.77
2022-10-05T05:42:26.612Z,4.33
2022-10-05T05:45:18.802Z,5.20
2022-10-05T05:48:08.460Z,9.20
2022-10-05T05:50:58.794Z,6.90
2022-10-05T05:53:46.162Z,4.93
2022-10-05T05:56:36.008Z,6.37
2022-10-05T05:59:25.941Z,6.87
2022-10-05T06:02:15.214Z,9.10
2022-10-05T06:05:08.000Z,5.07
2022-10-05T06:07:53.885Z,5.13
2022-10-05T06:10:44.673Z,6.17
2022-10-05T06:13:34.601Z,6.80
2022-10-05T06:16:24.022Z,8.77
2022-10-05T06:19:13.283Z,5.07
2022-10-05T06:22:05.205Z,4.70
2022-10-05T06:25:03.404Z,6.63
2022-10-05T06:28:03.991Z,10.17
2022-10-05T06:30:58.815Z,6.70
2022-10-05T06:33:49.400Z,7.60
2022-10-05T06:36:44.411Z,8.07
2022-10-05T06:39:58.693Z,6.33
2022-10-05T06:43:12.872Z,5.77
2022-10-05T06:46:24.067Z,4.80
2022-10-05T06:49:20.738Z,6.50
2022-10-05T06:52:21.371Z,5.10
2022-10-05T06:55:19.277Z,6.57
2022-10-05T06:58:22.516Z,4.00
2022-10-05T07:01:12.133Z,5.30
2022-10-05T07:04:12.116Z,4.47
2022-10-05T07:07:01.681Z,3.30
2022-10-05T07:09:57.908Z,3.93
2022-10-05T07:12:55.128Z,3.60
2022-10-05T07:15:46.340Z,5.57
2022-10-05T07:18:44.255Z,3.23
2022-10-05T07:21:39.548Z,2.60
2022-10-05T07:24:32.952Z,3.30
2022-10-05T07:27:21.624Z,2.50
2022-10-05T07:30:08.352Z,8.90
2022-10-05T07:33:02.949Z,2.77
2022-10-05T07:36:12.343Z,2.63
2022-10-05T07:39:03.902Z,2.07
2022-10-05T07:41:56.287Z,4.17
2022-10-05T07:44:49.405Z,2.30
2022-10-05T07:47:38.143Z,4.03
2022-10-05T07:50:27.887Z,2.17
2022-10-05T07:53:17.144Z,3.17
2022-10-05T07:56:10.637Z,2.10
2022-10-05T07:59:01.761Z,2.27
2022-10-05T08:01:52.125Z,2.03
2022-10-05T08:04:46.063Z,2.30
2022-10-05T08:07:33.177Z,3.80
2022-10-05T08:10:27.744Z,3.07
2022-10-05T08:13:20.334Z,3.10
2022-10-05T08:16:12.660Z,3.00
2022-10-05T08:19:02.451Z,2.60
2022-10-05T08:21:52.041Z,3.00
2022-10-05T08:24:43.230Z,4.03
2022-10-05T08:27:30.165Z,2.97
2022-10-05T08:30:17.085Z,1.90
2022-10-05T08:33:09.680Z,5.33
2022-10-05T08:36:04.781Z,1.90
2022-10-05T08:38:54.744Z,2.40
2022-10-05T08:42:09.414Z,2.10
2022-10-05T08:45:12.111Z,4.83
2022-10-05T08:48:24.274Z,1.97
2022-10-05T08:51:34.177Z,2.37
2022-10-05T08:54:44.735Z,1.77
2022-10-05T08:57:52.311Z,2.10
2022-10-05T09:00:50.302Z,2.50
2022-10-05T09:04:17.823Z,2.30
2022-10-05T09:07:11.813Z,3.90
2022-10-05T09:10:36.654Z,2.03
2022-10-05T09:13:54.626Z,2.37
2022-10-05T09:17:05.078Z,2.00
2022-10-05T09:20:11.229Z,2.30
2022-10-05T09:23:13.739Z,3.90
2022-10-05T09:26:00.819Z,1.42
2022-10-05T09:28:59.624Z,1.70
2022-10-05T09:32:05.432Z,1.92
2022-10-05T09:35:29.905Z,2.17
2022-10-05T09:38:23.335Z,1.67
2022-10-05T09:41:40.398Z,1.95
2022-10-05T09:44:54.143Z,2.90
2022-10-05T09:48:07.173Z,2.20
2022-10-05T09:51:27.892Z,1.43
2022-10-05T09:54:44.352Z,3.33
2022-10-05T09:57:47.204Z,2.08
2022-10-05T10:00:50.105Z,2.03
2022-10-05T10:04:07.184Z,1.80
2022-10-05T10:07:21.211Z,5.22
2022-10-05T10:10:34.555Z,2.17
2022-10-05T10:13:38.240Z,2.25
2022-10-05T10:16:53.758Z,1.75
2022-10-05T10:20:10.064Z,2.30
2022-10-05T10:23:24.679Z,2.17
2022-10-05T10:26:26.718Z,2.50
2022-10-05T10:29:28.956Z,1.50
2022-10-05T10:32:45.732Z,2.70
2022-10-05T10:35:35.903Z,1.52
2022-10-05T10:38:40.264Z,1.67
2022-10-05T10:41:53.044Z,2.15
2022-10-05T10:45:13.968Z,2.85
2022-10-05T10:48:12.157Z,2.60
2022-10-05T10:51:15.027Z,3.08
2022-10-05T10:54:32.617Z,1.80
2022-10-05T10:57:23.686Z,1.85
2022-10-05T11:00:24.153Z,3.33
2022-10-05T11:03:42.684Z,2.53
2022-10-05T11:07:11.532Z,3.28
2022-10-05T11:10:18.282Z,3.55
2022-10-05T11:13:35.473Z,1.90
2022-10-05T11:16:58.153Z,4.30
2022-10-05T11:20:03.501Z,1.90
2022-10-05T11:23:27.916Z,1.23
2022-10-05T11:26:32.635Z,1.38
2022-10-05T11:29:36.075Z,2.78
2022-10-05T11:32:56.356Z,3.00
2022-10-05T11:36:04.959Z,1.52
2022-10-05T11:39:17.990Z,2.47
2022-10-05T11:42:35.479Z,1.30
2022-10-05T11:45:26.159Z,3.83
2022-10-05T11:48:46.826Z,1.50
2022-10-05T11:51:39.532Z,3.05
2022-10-05T11:54:58.605Z,1.83
2022-10-05T11:57:51.731Z,1.50
2022-10-05T12:00:43.943Z,1.65
2022-10-05T12:03:53.341Z,1.30
2022-10-05T12:06:51.994Z,1.65
2022-10-05T12:10:11.458Z,2.72
2022-10-05T12:13:13.331Z,5.38
2022-10-05T12:16:00.976Z,1.50
2022-10-05T12:18:56.014Z,4.50
2022-10-05T12:21:45.536Z,2.08
2022-10-05T12:24:44.878Z,5.65
2022-10-05T12:27:32.513Z,2.67
2022-10-05T12:30:26.341Z,1.70
2022-10-05T12:33:19.899Z,1.98
2022-10-05T12:36:09.875Z,3.03
2022-10-05T12:39:01.617Z,2.50
2022-10-05T12:41:54.128Z,3.30
2022-10-05T12:44:56.282Z,2.75
2022-10-05T12:47:54.153Z,3.85
2022-10-05T12:50:42.186Z,4.88
2022-10-05T12:53:40.216Z,13.38
2022-10-05T12:56:38.059Z,5.50
2022-10-05T12:59:33.907Z,3.15
2022-10-05T13:02:29.665Z,2.40
2022-10-05T13:05:24.330Z,2.13
2022-10-05T13:08:19.131Z,5.82
2022-10-05T13:11:12.684Z,1.95
2022-10-05T13:14:09.409Z,3.10
2022-10-05T13:17:00.443Z,3.13
2022-10-05T13:19:48.192Z,4.75
2022-10-05T13:22:38.461Z,3.17
2022-10-05T13:25:28.608Z,2.50
2022-10-05T13:28:19.644Z,3.47
2022-10-05T13:31:08.379Z,2.45
2022-10-05T13:34:15.429Z,1.98
2022-10-05T13:37:10.246Z,2.53
2022-10-05T13:40:06.381Z,3.85
2022-10-05T13:42:55.891Z,1.98
2022-10-05T13:45:46.159Z,2.55
2022-10-05T13:48:53.000Z,2.67
2022-10-05T13:51:42.747Z,4.68
2022-10-05T13:54:35.342Z,2.45
2022-10-05T13:57:36.188Z,2.08
2022-10-05T14:00:25.650Z,3.15
2022-10-05T14:03:27.601Z,1.75
2022-10-05T14:06:14.525Z,2.55
2022-10-05T14:08:59.989Z,2.17
2022-10-05T14:11:50.793Z,7.20
2022-10-05T14:14:46.833Z,5.78
2022-10-05T14:17:39.028Z,3.67
2022-10-05T14:20:28.243Z,3.75
2022-10-05T14:23:18.559Z,1.60
2022-10-05T14:26:19.309Z,1.33
2022-10-05T14:29:16.930Z,3.20
2022-10-05T14:32:13.235Z,3.78
2022-10-05T14:35:05.240Z,1.50
2022-10-05T14:37:56.421Z,1.70
2022-10-05T14:40:40.324Z,1.77
2022-10-05T14:43:24.192Z,2.05
2022-10-05T14:46:27.805Z,1.50
2022-10-05T14:49:21.585Z,1.42
2022-10-05T14:52:28.784Z,2.28
2022-10-05T14:55:24.775Z,1.35
2022-10-05T14:58:24.278Z,1.70
2022-10-05T15:01:17.627Z,3.45
2022-10-05T15:04:17.583Z,2.47
2022-10-05T15:07:14.764Z,1.95
2022-10-05T15:10:22.676Z,2.05
2022-10-05T15:13:13.230Z,4.07
2022-10-05T15:16:01.207Z,3.95
2022-10-05T15:18:50.838Z,6.40
2022-10-05T15:21:50.798Z,4.87
2022-10-05T15:24:43.707Z,2.57
2022-10-05T15:27:37.765Z,6.77
2022-10-05T15:30:23.071Z,8.17
2022-10-05T15:33:16.172Z,5.77
2022-10-05T15:36:10.884Z,13.23
2022-10-05T15:39:03.597Z,6.47
2022-10-05T15:42:01.066Z,12.37
2022-10-05T15:45:01.694Z,11.73
2022-10-05T15:47:53.686Z,18.90
2022-10-05T15:50:45.684Z,13.80
2022-10-05T15:53:40.569Z,10.37
2022-10-05T15:56:31.361Z,5.17
2022-10-05T15:59:25.316Z,5.80
2022-10-05T16:02:19.999Z,10.50
2022-10-05T16:05:16.154Z,9.13
2022-10-05T16:08:17.453Z,8.53
2022-10-05T16:11:02.317Z,13.17
2022-10-05T16:13:53.645Z,8.63
2022-10-05T16:16:50.723Z,6.27
2022-10-05T16:19:41.014Z,8.13
2022-10-05T16:22:33.887Z,5.27
2022-10-05T16:25:23.497Z,2.80
2022-10-05T16:28:19.694Z,5.73
2022-10-05T16:31:13.430Z,7.87
2022-10-05T16:34:06.715Z,4.70
2022-10-05T16:37:00.023Z,5.57
2022-10-05T16:39:55.116Z,5.50
2022-10-05T16:42:50.959Z,7.43
2022-10-05T16:45:47.471Z,4.10
2022-10-05T16:48:36.394Z,4.57
2022-10-05T16:51:32.627Z,2.17
2022-10-05T16:54:21.426Z,2.60
2022-10-05T16:57:12.753Z,5.30
2022-10-05T17:00:16.563Z,5.10
2022-10-05T17:03:19.543Z,5.37
2022-10-05T17:06:37.154Z,3.30
2022-10-05T17:09:48.476Z,2.73
2022-10-05T17:12:45.598Z,4.13
2022-10-05T17:15:38.182Z,2.07
2022-10-05T17:18:29.939Z,2.67
2022-10-05T17:21:19.442Z,3.17
2022-10-05T17:24:21.602Z,3.87
2022-10-05T17:27:20.527Z,3.33
2022-10-05T17:30:41.951Z,3.43
2022-10-05T17:33:29.184Z,2.60
2022-10-05T17:36:19.418Z,3.77
2022-10-05T17:39:15.718Z,4.33
2022-10-05T17:42:32.545Z,3.63
2022-10-05T17:45:52.895Z,5.67
2022-10-05T17:48:43.318Z,5.67
2022-10-05T17:52:16.995Z,6.67
2022-10-05T17:55:27.438Z,3.10
2022-10-05T17:59:02.077Z,3.13
2022-10-05T18:02:15.790Z,2.77
2022-10-05T18:05:06.363Z,4.60
2022-10-05T18:08:31.770Z,3.43
2022-10-05T18:11:37.928Z,4.63
2022-10-05T18:14:24.902Z,3.17
2022-10-05T18:17:13.919Z,2.90
2022-10-05T18:20:14.866Z,6.40
2022-10-05T18:23:35.696Z,4.77
2022-10-05T18:26:31.867Z,4.80
2022-10-05T18:29:49.781Z,4.77
2022-10-05T18:32:55.420Z,4.37
2022-10-05T18:35:53.553Z,4.60
2022-10-05T18:38:48.446Z,4.97
2022-10-05T18:41:54.336Z,5.90
2022-10-05T18:44:42.188Z,5.10
2022-10-05T18:47:35.595Z,3.87
2022-10-05T18:50:28.119Z,3.70
2022-10-05T18:53:23.269Z,3.40
2022-10-05T18:56:18.880Z,4.53
2022-10-05T18:59:20.139Z,4.40
2022-10-05T19:02:13.740Z,3.73
2022-10-05T19:05:18.949Z,3.50
2022-10-05T19:08:26.801Z,3.20
2022-10-05T19:11:19.147Z,4.47
2022-10-05T19:14:12.280Z,4.07
2022-10-05T19:17:10.146Z,4.03
2022-10-05T19:20:18.120Z,4.43
2022-10-05T19:23:27.520Z,9.03
2022-10-05T19:26:16.575Z,4.67
2022-10-05T19:29:13.411Z,4.97
2022-10-05T19:32:03.656Z,5.63
2022-10-05T19:35:05.529Z,5.00
2022-10-05T19:37:57.525Z,5.73
2022-10-05T19:40:50.276Z,6.43
2022-10-05T19:43:55.504Z,7.17
2022-10-05T19:46:57.055Z,7.13
2022-10-05T19:49:50.138Z,6.80
2022-10-05T19:52:47.524Z,6.00
2022-10-05T19:55:37.087Z,6.23
2022-10-05T19:58:24.611Z,10.33
2022-10-05T20:01:08.531Z,6.03
2022-10-05T20:03:53.383Z,4.60
2022-10-05T20:06:39.575Z,6.50
2022-10-05T20:09:24.889Z,4.97
2022-10-05T20:12:08.662Z,4.83
2022-10-05T20:15:35.606Z,8.00
2022-10-05T20:19:05.963Z,4.63
2022-10-05T20:21:51.966Z,5.43
2022-10-05T20:24:50.971Z,5.70
2022-10-05T20:27:49.167Z,4.10
2022-10-05T20:30:34.284Z,4.47
2022-10-05T20:33:18.228Z,4.00
2022-10-05T20:36:03.781Z,3.83
2022-10-05T20:38:47.602Z,4.37
2022-10-05T20:41:32.200Z,4.00
2022-10-05T20:44:16.278Z,4.33
2022-10-05T20:47:01.626Z,4.60
2022-10-05T20:49:45.535Z,5.37
2022-10-05T20:52:29.467Z,5.57
2022-10-05T20:55:13.590Z,6.63
2022-10-05T20:57:57.518Z,4.93
2022-10-05T21:00:59.075Z,5.33
2022-10-05T21:03:44.511Z,5.80
2022-10-05T21:06:29.654Z,5.70
2022-10-05T21:09:15.177Z,4.60
2022-10-05T21:11:59.418Z,4.40
2022-10-05T21:14:43.222Z,4.10
2022-10-05T21:17:26.903Z,3.80
2022-10-05T21:20:13.034Z,3.67
2022-10-05T21:22:56.687Z,4.07
2022-10-05T21:25:40.351Z,5.00
2022-10-05T21:28:24.229Z,3.33
2022-10-05T21:31:09.556Z,3.40
2022-10-05T21:33:53.687Z,3.93
2022-10-05T21:36:39.159Z,4.27
2022-10-05T21:39:23.679Z,3.77
2022-10-05T21:42:07.480Z,4.00
2022-10-05T21:44:51.196Z,4.00
2022-10-05T21:47:36.004Z,3.93
2022-10-05T21:50:19.861Z,3.50
2022-10-05T21:53:08.617Z,3.37
2022-10-05T21:55:53.292Z,3.20
2022-10-05T21:58:37.829Z,4.77
2022-10-05T22:01:22.917Z,5.77
2022-10-05T22:04:07.840Z,4.13
2022-10-05T22:06:51.569Z,4.57
2022-10-05T22:09:36.664Z,4.70
2022-10-05T22:12:21.044Z,4.63
2022-10-05T22:15:06.380Z,4.33
2022-10-05T22:17:50.394Z,3.30
2022-10-05T22:20:35.873Z,2.97
2022-10-05T22:23:19.856Z,3.53
2022-10-05T22:26:06.528Z,3.13
2022-10-05T22:28:55.144Z,3.37
2022-10-05T22:31:39.685Z,3.53
2022-10-05T22:34:23.757Z,2.83
2022-10-05T22:37:08.023Z,3.07
2022-10-05T22:39:51.722Z,4.10
2022-10-05T22:42:36.969Z,3.30
2022-10-05T22:45:20.655Z,3.90
2022-10-05T22:48:04.473Z,3.17
2022-10-05T22:50:49.308Z,3.10
2022-10-05T22:53:33.095Z,2.90
2022-10-05T22:56:18.330Z,3.20
2022-10-05T22:59:03.487Z,4.57
2022-10-05T23:01:47.328Z,3.70
2022-10-05T23:04:31.265Z,3.43
2022-10-05T23:07:15.119Z,4.40
2022-10-05T23:09:59.200Z,3.27
2022-10-05T23:12:43.098Z,3.70
2022-10-05T23:15:28.531Z,3.80
2022-10-05T23:18:13.066Z,3.67
2022-10-05T23:20:57.516Z,4.00
2022-10-05T23:23:47.396Z,3.33
2022-10-05T23:26:32.233Z,3.53
2022-10-05T23:29:16.020Z,4.37
2022-10-05T23:32:01.175Z,3.73
2022-10-05T23:34:44.876Z,3.90
2022-10-05T23:37:29.198Z,4.10
2022-10-05T23:40:14.743Z,4.27
2022-10-05T23:42:58.489Z,5.60
2022-10-05T23:45:45.439Z,3.90
2022-10-05T23:48:31.518Z,4.87
2022-10-05T23:51:16.244Z,3.40
2022-10-05T23:54:00.059Z,3.20
2022-10-05T23:56:43.884Z,3.43
2022-10-05T23:59:27.727Z,3.47
